Time;durP1;ratioP1;P1;durP2;ratioP2;P2;SDS_P1;SDS_P2;PMS_P1;PMS_P2;Temp;Humidity;BMP_temperature;BMP_pressure;BME280_temperature;BME280_humidity;BME280_pressure;Samples;Min_cycle;Max_cycle;Signal;HPM_P1;HPM_P2
2022/10/29 00:00:17;;;;;;;37.95;20.02;;;;;;;10.91;79.38;100821.09;2185626;81;31020;-60
2022/10/29 00:03:21;;;;;;;43.20;21.30;;;;;;;10.89;79.43;100815.78;2209258;80;28205;-60
2022/10/29 00:06:22;;;;;;;30.15;17.85;;;;;;;10.89;79.42;100817.59;2185947;81;29318;-59
2022/10/29 00:09:23;;;;;;;26.87;16.35;;;;;;;10.88;79.54;100816.71;2209724;80;27650;-61
2022/10/29 00:12:26;;;;;;;32.00;17.42;;;;;;;10.90;79.70;100809.48;2185496;81;29887;-59
2022/10/29 00:15:29;;;;;;;25.88;15.95;;;;;;;10.91;79.66;100815.73;2158274;81;31916;-59
2022/10/29 00:18:31;;;;;;;33.20;17.37;;;;;;;10.92;79.66;100825.03;2185872;81;33310;-59
2022/10/29 00:21:44;;;;;;;29.25;16.95;;;;;;;10.91;79.65;100827.31;2209459;80;30002;-59
2022/10/29 00:24:49;;;;;;;23.00;15.48;;;;;;;10.91;79.68;100825.97;2186124;81;27699;-59
2022/10/29 00:27:50;;;;;;;21.35;14.90;;;;;;;10.89;79.67;100826.50;2209457;80;29552;-59
2022/10/29 00:30:52;;;;;;;24.50;14.93;;;;;;;10.88;79.77;100819.87;2185615;80;31375;-59
2022/10/29 00:33:54;;;;;;;26.60;14.55;;;;;;;10.88;79.78;100819.87;2209773;80;33369;-59
2022/10/29 00:36:55;;;;;;;24.60;12.88;;;;;;;10.87;79.71;100812.28;2185971;81;28787;-59
2022/10/29 00:39:56;;;;;;;20.90;13.85;;;;;;;10.87;79.87;100816.30;2209767;80;27710;-59
2022/10/29 00:43:16;;;;;;;20.90;12.10;;;;;;;10.88;79.97;100810.50;2186115;81;29353;-60
2022/10/29 00:46:33;;;;;;;22.42;11.73;;;;;;;10.92;80.22;100810.77;2209797;80;31015;-59
2022/10/29 00:49:36;;;;;;;21.27;12.20;;;;;;;10.97;80.34;100806.55;2182641;80;33987;-59
2022/10/29 00:52:42;;;;;;;20.37;12.43;;;;;;;11.01;80.21;100812.16;2209366;80;29980;-60
2022/10/29 00:55:43;;;;;;;21.23;12.88;;;;;;;11.04;80.34;100799.52;2186049;81;27690;-59
2022/10/29 00:58:45;;;;;;;23.32;12.75;;;;;;;11.08;80.42;100801.12;2209980;80;28631;-60
2022/10/29 01:01:48;;;;;;;21.90;14.33;;;;;;;11.12;80.43;100798.29;2185725;81;31129;-59
2022/10/29 01:04:51;;;;;;;22.77;12.18;;;;;;;11.17;80.44;100798.48;2209538;80;33057;-59
2022/10/29 01:07:53;;;;;;;22.35;12.73;;;;;;;11.20;80.47;100791.65;2186090;81;29554;-60
2022/10/29 01:11:24;;;;;;;15.38;12.47;;;;;;;11.24;80.42;100808.02;2209687;80;28056;-59
2022/10/29 01:15:04;;;;;;;17.07;12.43;;;;;;;11.28;80.39;100803.86;2185848;81;28857;-59
2022/10/29 01:18:19;;;;;;;20.97;12.47;;;;;;;11.30;80.42;100804.67;2187269;80;32263;-59
2022/10/29 01:21:46;;;;;;;22.30;11.78;;;;;;;11.34;80.44;100816.52;2202637;80;33303;-61
2022/10/29 01:25:02;;;;;;;20.70;11.57;;;;;;;11.34;80.44;100816.52;2185398;81;30108;-59
2022/10/29 01:28:37;;;;;;;22.85;12.70;;;;;;;11.38;80.48;100808.75;2209778;80;27614;-59
2022/10/29 01:32:12;;;;;;;18.25;11.30;;;;;;;11.40;80.50;100809.55;2164401;80;28731;-59
2022/10/29 01:35:24;;;;;;;17.27;12.20;;;;;;;11.45;80.51;100803.09;2178516;81;31095;-60
2022/10/29 01:39:07;;;;;;;19.37;12.28;;;;;;;11.47;80.56;100803.44;2184177;81;33724;-61
2022/10/29 01:42:29;;;;;;;26.52;14.03;;;;;;;11.50;80.59;100795.70;2177987;81;29611;-59
2022/10/29 01:45:42;;;;;;;24.12;13.65;;;;;;;11.53;80.64;100804.48;2184577;81;27577;-58
2022/10/29 01:48:47;;;;;;;21.42;13.30;;;;;;;11.54;80.63;100803.55;2168285;81;29031;-59
2022/10/29 01:51:49;;;;;;;20.90;14.20;;;;;;;11.57;80.61;100804.34;2165307;82;31452;-59
2022/10/29 01:54:51;;;;;;;21.35;13.18;;;;;;;11.57;80.62;100803.89;2165289;82;32955;-58
2022/10/29 01:57:52;;;;;;;21.52;13.70;;;;;;;11.59;80.65;100807.84;2183657;81;29430;-58
2022/10/29 02:01:11;;;;;;;19.98;13.65;;;;;;;11.61;80.67;100808.64;2184621;81;28166;-58
2022/10/29 02:04:33;;;;;;;21.48;13.98;;;;;;;11.62;80.67;100802.34;2183595;81;28754;-58
2022/10/29 02:07:54;;;;;;;21.00;13.58;;;;;;;11.62;80.62;100808.56;2040190;87;30379;-58
2022/10/29 02:11:09;;;;;;;23.05;13.83;;;;;;;11.62;80.57;100809.05;2040968;87;34411;-58
2022/10/29 02:14:28;;;;;;;24.35;13.20;;;;;;;11.60;80.59;100813.13;2014807;87;29440;-57
2022/10/29 02:17:32;;;;;;;21.02;13.58;;;;;;;11.59;80.57;100806.01;2006125;88;27741;-58
2022/10/29 02:20:35;;;;;;;23.62;14.10;;;;;;;11.58;80.59;100804.30;2006659;88;29811;-58
2022/10/29 02:23:37;;;;;;;28.55;14.90;;;;;;;11.58;80.59;100796.25;1984929;88;31078;-58
2022/10/29 02:26:38;;;;;;;20.90;12.58;;;;;;;11.59;80.62;100791.73;2006096;88;33015;-59
2022/10/29 02:29:40;;;;;;;22.75;14.18;;;;;;;11.58;80.60;100785.97;2006253;88;29715;-58
2022/10/29 02:32:41;;;;;;;20.23;14.05;;;;;;;11.58;80.68;100791.34;2002788;88;27751;-60
2022/10/29 02:35:43;;;;;;;26.42;14.73;;;;;;;11.57;80.61;100799.87;2002651;88;28797;-58
2022/10/29 02:38:44;;;;;;;25.25;13.90;;;;;;;11.56;80.58;100786.05;2003361;88;31350;-58
2022/10/29 02:41:45;;;;;;;23.47;13.28;;;;;;;11.55;80.60;100785.65;2002738;87;33467;-58
2022/10/29 02:44:47;;;;;;;21.87;14.43;;;;;;;11.52;80.54;100778.59;2168742;79;30507;-58
2022/10/29 02:47:48;;;;;;;21.40;14.60;;;;;;;11.51;80.50;100775.50;2185628;81;27591;-59
2022/10/29 02:50:49;;;;;;;22.05;13.58;;;;;;;11.49;80.49;100773.84;2209690;80;29465;-58
2022/10/29 02:53:51;;;;;;;23.87;14.10;;;;;;;11.47;80.58;100769.91;2185931;81;32176;-58
2022/10/29 02:56:52;;;;;;;24.15;14.47;;;;;;;11.48;80.66;100765.39;2209468;80;34168;-57
2022/10/29 02:59:53;;;;;;;20.60;13.20;;;;;;;11.48;80.69;100765.39;2185917;81;29670;-59
2022/10/29 03:02:55;;;;;;;25.15;14.13;;;;;;;11.48;80.67;100758.69;2209443;80;27710;-59
2022/10/29 03:05:56;;;;;;;24.47;14.63;;;;;;;11.49;80.73;100761.31;2186012;81;29554;-59
2022/10/29 03:08:57;;;;;;;26.20;15.25;;;;;;;11.49;80.75;100765.34;2209817;80;31367;-64
2022/10/29 03:11:59;;;;;;;21.17;14.60;;;;;;;11.50;80.75;100772.42;2185421;81;32942;-58
2022/10/29 03:15:01;;;;;;;26.55;15.48;;;;;;;11.51;80.78;100771.48;2208990;80;29733;-58
2022/10/29 03:18:03;;;;;;;23.40;14.68;;;;;;;11.51;80.82;100771.96;2185583;81;27720;-57
2022/10/29 03:21:04;;;;;;;20.30;13.28;;;;;;;11.52;80.83;100779.93;2209268;80;29891;-58
2022/10/29 03:24:06;;;;;;;26.73;15.18;;;;;;;11.51;80.82;100779.53;2185657;81;31048;-57
2022/10/29 03:27:08;;;;;;;28.23;15.50;;;;;;;11.51;80.83;100780.87;2209308;80;33009;-57
2022/10/29 03:30:15;;;;;;;26.27;15.75;;;;;;;11.50;80.80;100785.83;2185832;80;30475;-59
2022/10/29 03:33:16;;;;;;;23.70;14.93;;;;;;;11.48;80.79;100786.41;2178217;81;27581;-59
2022/10/29 03:36:18;;;;;;;23.87;14.95;;;;;;;11.48;80.74;100797.14;2183977;81;29081;-59
2022/10/29 03:39:19;;;;;;;19.55;13.15;;;;;;;11.44;80.68;100790.16;2177854;81;32249;-57
2022/10/29 03:42:25;;;;;;;22.82;14.70;;;;;;;11.41;80.61;100790.29;2174528;81;33814;-58
2022/10/29 03:45:26;;;;;;;26.77;15.65;;;;;;;11.36;80.60;100790.96;2149086;81;29698;-58
2022/10/29 03:48:31;;;;;;;22.37;14.07;;;;;;;11.31;80.54;100797.02;2148535;82;27599;-58
2022/10/29 03:51:32;;;;;;;;;;;;;;;11.25;80.46;100797.69;2151489;82;28659;-59
2022/10/29 03:54:34;;;;;;;30.57;19.27;;;;;;;11.18;80.45;100796.20;2184219;81;31395;-60
2022/10/29 03:57:35;;;;;;;31.25;18.82;;;;;;;11.12;80.44;100799.17;2183882;81;33780;-59
2022/10/29 04:00:36;;;;;;;49.33;27.40;;;;;;;11.06;80.46;100800.77;2184313;81;29649;-59
2022/10/29 04:03:41;;;;;;;44.73;27.58;;;;;;;11.01;80.60;100808.13;2148708;82;27613;-58
2022/10/29 04:06:42;;;;;;;47.00;26.95;;;;;;;10.96;80.58;100807.00;2148501;82;29797;-59
2022/10/29 04:09:43;;;;;;;39.80;25.32;;;;;;;10.89;80.44;100809.08;2148994;82;31381;-58
2022/10/29 04:12:45;;;;;;;38.23;22.87;;;;;;;10.84;80.46;100820.45;2165971;81;32973;-59
2022/10/29 04:15:47;;;;;;;46.63;29.15;;;;;;;10.78;80.38;100816.71;2178277;81;29447;-58
2022/10/29 04:18:49;;;;;;;74.92;41.60;;;;;;;10.72;80.50;100814.28;2184598;81;28038;-60
2022/10/29 04:21:50;;;;;;;99.28;53.42;;;;;;;10.66;80.61;100827.47;2178021;81;29907;-57
2022/10/29 04:24:52;;;;;;;84.72;47.73;;;;;;;10.60;80.47;100829.05;2184111;81;31389;-59
2022/10/29 04:27:54;;;;;;;74.97;42.80;;;;;;;10.55;80.47;100833.27;2178744;81;33368;-58
2022/10/29 04:30:55;;;;;;;71.67;42.55;;;;;;;10.48;80.39;100832.65;2184238;80;29348;-58
2022/10/29 04:33:57;;;;;;;69.87;38.75;;;;;;;10.43;80.46;100836.45;2178447;81;27676;-58
2022/10/29 04:36:58;;;;;;;61.00;33.95;;;;;;;10.38;80.47;100836.64;2184083;81;29125;-58
2022/10/29 04:39:59;;;;;;;55.15;32.08;;;;;;;10.34;80.51;100841.68;2178398;81;31820;-63
2022/10/29 04:43:00;;;;;;;49.53;30.45;;;;;;;10.29;80.56;100839.64;2163998;81;33448;-58
2022/10/29 04:46:01;;;;;;;48.58;28.30;;;;;;;10.25;80.53;100850.95;2148867;82;29658;-59
2022/10/29 04:49:03;;;;;;;40.85;25.50;;;;;;;10.21;80.55;100844.44;2148658;82;27713;-58
2022/10/29 04:52:04;;;;;;;46.70;24.52;;;;;;;10.15;80.55;100842.41;2184014;81;29810;-59
2022/10/29 04:55:07;;;;;;;42.53;24.82;;;;;;;10.11;80.59;100847.95;2183960;81;31376;-60
2022/10/29 04:58:17;;;;;;;44.60;24.70;;;;;;;10.06;80.67;100849.92;2183416;81;33960;-59
2022/10/29 05:01:18;;;;;;;46.30;24.57;;;;;;;10.00;80.60;100855.94;2182619;81;29148;-59
2022/10/29 05:04:20;;;;;;;42.90;25.15;;;;;;;9.96;80.59;100853.41;2183581;81;27788;-59
2022/10/29 05:07:21;;;;;;;43.95;24.18;;;;;;;9.91;80.72;100853.59;2183952;81;28116;-58
2022/10/29 05:10:23;;;;;;;37.83;22.45;;;;;;;9.88;80.65;100860.39;2148361;81;31440;-60
2022/10/29 05:13:24;;;;;;;40.73;23.00;;;;;;;9.83;80.66;100861.05;2176216;81;33757;-65
2022/10/29 05:16:26;;;;;;;38.23;22.75;;;;;;;9.78;80.64;100867.03;2177900;81;30529;-58
2022/10/29 05:19:27;;;;;;;38.40;21.25;;;;;;;9.75;80.63;100869.37;2184015;81;27707;-58
2022/10/29 05:22:28;;;;;;;35.58;20.50;;;;;;;9.70;80.72;100865.50;2172771;81;29163;-58
2022/10/29 05:25:33;;;;;;;36.45;20.60;;;;;;;9.65;80.63;100865.27;2164879;81;32231;-58
2022/10/29 05:28:34;;;;;;;33.35;19.37;;;;;;;9.62;80.67;100868.05;2165536;82;33416;-58
2022/10/29 05:31:36;;;;;;;31.68;18.82;;;;;;;9.56;80.66;100870.48;2184586;81;29703;-58
2022/10/29 05:34:37;;;;;;;34.67;19.40;;;;;;;9.53;80.69;100869.25;2185576;81;27698;-58
2022/10/29 05:37:38;;;;;;;34.00;19.67;;;;;;;9.48;80.70;100885.47;2209210;80;29983;-58
2022/10/29 05:40:43;;;;;;;35.05;18.27;;;;;;;9.45;80.75;100885.58;2185894;81;31387;-58
2022/10/29 05:43:48;;;;;;;33.48;18.57;;;;;;;9.41;80.76;100891.98;2209242;80;33012;-58
2022/10/29 05:46:49;;;;;;;33.48;17.85;;;;;;;9.39;80.85;100900.52;2185934;81;29372;-58
2022/10/29 05:49:51;;;;;;;25.85;16.95;;;;;;;9.35;80.89;100890.38;2209407;80;27658;-58
2022/10/29 05:52:58;;;;;;;28.70;18.10;;;;;;;9.34;80.97;100893.11;2185980;81;28649;-58
2022/10/29 05:55:59;;;;;;;26.97;17.05;;;;;;;9.33;81.02;100898.94;2209594;80;31016;-58
2022/10/29 05:59:01;;;;;;;31.07;17.42;;;;;;;9.33;81.15;100891.36;2185631;81;33232;-60
2022/10/29 06:02:03;;;;;;;30.43;17.55;;;;;;;9.32;81.18;100889.17;2209826;80;30122;-59
2022/10/29 06:05:05;;;;;;;35.60;18.42;;;;;;;9.34;81.29;100897.13;2186169;81;27889;-59
2022/10/29 06:08:07;;;;;;;29.30;17.90;;;;;;;9.36;81.37;100907.31;2186771;81;28685;-58
2022/10/29 06:11:08;;;;;;;27.48;17.48;;;;;;;9.38;81.48;100908.98;2185892;81;31474;-58
2022/10/29 06:14:09;;;;;;;35.98;18.48;;;;;;;9.41;81.59;100906.22;2186698;81;34126;-57
2022/10/29 06:17:11;;;;;;;30.80;18.15;;;;;;;9.47;81.76;100913.62;2185524;81;31471;-58
2022/10/29 06:20:15;;;;;;;28.75;18.15;;;;;;;9.54;81.91;100905.77;2209838;80;27708;-58
2022/10/29 06:23:16;;;;;;;28.32;16.90;;;;;;;9.62;82.08;100901.48;2185860;81;28646;-58
2022/10/29 06:26:18;;;;;;;28.23;17.55;;;;;;;9.73;82.30;100899.31;2209726;80;31031;-58
2022/10/29 06:29:19;;;;;;;27.42;18.10;;;;;;;9.85;82.49;100898.86;2186094;81;33003;-58
2022/10/29 06:32:21;;;;;;;23.92;17.07;;;;;;;10.00;82.75;100905.45;2179769;81;30657;-58
2022/10/29 06:35:22;;;;;;;24.40;16.62;;;;;;;10.17;82.96;100907.95;2194483;81;27674;-58
2022/10/29 06:38:24;;;;;;;24.37;16.62;;;;;;;10.36;83.25;100912.13;2183506;81;28873;-58
2022/10/29 06:41:26;;;;;;;28.02;16.95;;;;;;;10.54;83.44;100910.55;2200515;80;31449;-58
2022/10/29 06:44:27;;;;;;;32.40;17.67;;;;;;;10.72;83.47;100911.64;2200351;80;34219;-60
2022/10/29 06:47:29;;;;;;;28.42;16.60;;;;;;;10.90;83.54;100915.84;2200197;80;30518;-58
2022/10/29 06:50:30;;;;;;;26.80;15.60;;;;;;;11.03;83.50;100919.76;2200646;80;27649;-57
2022/10/29 06:53:32;;;;;;;29.55;16.42;;;;;;;11.17;83.46;100921.84;2187600;80;27823;-58
2022/10/29 06:56:35;;;;;;;30.40;16.10;;;;;;;11.28;83.42;100928.09;2183876;81;32187;-58
2022/10/29 06:59:37;;;;;;;26.12;15.40;;;;;;;11.40;83.38;100928.94;2012486;87;32974;-58
2022/10/29 07:02:38;;;;;;;24.00;15.93;;;;;;;11.52;83.45;100924.83;2034167;87;30725;-58
2022/10/29 07:05:39;;;;;;;27.50;15.80;;;;;;;11.65;83.50;100928.34;2000082;89;28520;-58
2022/10/29 07:08:40;;;;;;;26.62;16.15;;;;;;;11.78;83.54;100925.50;1999705;89;30841;-60
2022/10/29 07:11:41;;;;;;;22.05;14.33;;;;;;;11.94;83.68;100920.30;2000036;89;31164;-59
2022/10/29 07:14:43;;;;;;;24.12;15.45;;;;;;;12.15;83.84;100931.05;1999960;89;33995;-58
2022/10/29 07:18:06;;;;;;;22.32;14.95;;;;;;;12.37;84.04;100926.88;2000089;89;29456;-58
2022/10/29 07:21:08;;;;;;;21.30;14.23;;;;;;;12.60;84.11;100917.72;2000121;89;27866;-59
2022/10/29 07:24:09;;;;;;;20.35;13.50;;;;;;;12.89;84.25;100918.59;2000399;89;28756;-58
2022/10/29 07:27:11;;;;;;;25.92;14.50;;;;;;;13.18;84.28;100920.28;1999834;89;31186;-58
2022/10/29 07:30:13;;;;;;;20.23;12.85;;;;;;;13.48;84.39;100917.88;1999671;89;35086;-61
2022/10/29 07:33:16;;;;;;;27.95;13.40;;;;;;;13.75;84.21;100925.45;1997723;88;30032;-60
2022/10/29 07:36:17;;;;;;;22.42;13.28;;;;;;;13.98;84.01;100921.52;2027726;87;27741;-58
2022/10/29 07:39:19;;;;;;;19.17;11.88;;;;;;;14.35;83.52;100916.42;2030499;87;29130;-59
2022/10/29 07:42:21;;;;;;;18.65;11.55;;;;;;;14.35;83.52;100916.42;2027317;87;32178;-61
2022/10/29 07:45:22;;;;;;;16.30;10.08;;;;;;;14.50;83.42;100910.66;2030177;87;34504;-58
2022/10/29 07:48:24;;;;;;;21.55;9.38;;;;;;;14.65;83.46;100912.95;2027137;87;30340;-59
2022/10/29 07:51:26;;;;;;;18.05;9.15;;;;;;;14.77;83.37;100920.39;2050102;86;27780;-60
2022/10/29 07:54:28;;;;;;;16.17;8.80;;;;;;;14.89;83.25;100914.28;2030432;87;29119;-59
2022/10/29 07:57:30;;;;;;;12.88;7.72;;;;;;;15.02;83.17;100918.50;2189455;80;32335;-59
2022/10/29 08:00:41;;;;;;;16.55;8.38;;;;;;;15.17;83.07;100915.85;2185482;81;33486;-60
2022/10/29 08:03:42;;;;;;;23.30;8.78;;;;;;;15.31;82.97;100920.41;2185485;81;30132;-60
2022/10/29 08:06:43;;;;;;;19.20;7.33;;;;;;;15.48;82.95;100924.81;2185863;81;27620;-60
2022/10/29 08:09:45;;;;;;;21.40;8.00;;;;;;;15.69;82.82;100920.42;2186178;81;28985;-59
2022/10/29 08:12:56;;;;;;;17.07;7.72;;;;;;;15.93;82.71;100922.98;2185864;81;32198;-60
2022/10/29 08:15:58;;;;;;;14.43;7.05;;;;;;;16.13;82.16;100929.47;2158081;81;32942;-60
2022/10/29 08:19:05;;;;;;;16.77;7.15;;;;;;;16.29;81.86;100928.00;2185285;81;29490;-60
2022/10/29 08:22:16;;;;;;;20.65;6.70;;;;;;;16.42;81.48;100928.09;2095522;84;27983;-60
2022/10/29 08:25:30;;;;;;;22.00;6.70;;;;;;;16.50;81.03;100920.34;2072147;85;29624;-61
2022/10/29 08:28:34;;;;;;;18.67;6.40;;;;;;;16.58;80.81;100915.78;2066669;84;27971;-61
2022/10/29 08:31:36;;;;;;;13.58;6.42;;;;;;;16.65;80.56;100916.63;2072016;85;33014;-60
2022/10/29 08:34:38;;;;;;;11.93;6.53;;;;;;;16.74;80.58;100924.63;2055723;85;29758;-63
2022/10/29 08:37:44;;;;;;;16.50;6.60;;;;;;;16.85;80.40;100925.28;2054523;86;27898;-59
2022/10/29 08:41:41;;;;;;;18.37;6.53;;;;;;;17.00;80.42;100929.70;2054708;86;28722;-60
2022/10/29 08:45:00;;;;;;;14.50;7.15;;;;;;;17.15;80.09;100930.53;2054468;86;31099;-59
2022/10/29 08:48:27;;;;;;;16.85;6.67;;;;;;;17.36;79.90;100934.58;2054248;86;33806;-60
2022/10/29 08:51:36;;;;;;;17.02;6.65;;;;;;;17.52;79.61;100925.78;2060198;85;29334;-59
2022/10/29 08:54:40;;;;;;;16.17;7.05;;;;;;;17.73;79.47;100923.42;2122516;83;27705;-59
2022/10/29 08:57:46;;;;;;;19.17;6.83;;;;;;;17.90;79.00;100924.96;2074924;85;29427;-60
2022/10/29 09:00:51;;;;;;;18.40;7.53;;;;;;;18.03;78.56;100930.89;2039119;86;31214;-59
2022/10/29 09:03:54;;;;;;;13.35;6.12;;;;;;;18.09;78.20;100938.60;2074958;85;32940;-64
2022/10/29 09:07:32;;;;;;;12.50;5.97;;;;;;;18.11;77.69;100930.34;2038758;87;30027;-60
2022/10/29 09:10:42;;;;;;;12.53;5.40;;;;;;;18.14;77.43;100930.13;2074384;85;27680;-62
2022/10/29 09:13:58;;;;;;;10.75;5.70;;;;;;;18.21;77.43;100935.47;2038603;87;28814;-60
2022/10/29 09:17:27;;;;;;;16.65;5.37;;;;;;;18.29;77.35;100938.52;2074723;85;31018;-61
2022/10/29 09:21:01;;;;;;;16.80;5.40;;;;;;;18.40;77.18;100936.39;2110663;84;33061;-58
2022/10/29 09:24:14;;;;;;;10.68;5.12;;;;;;;18.53;76.69;100942.65;2112824;84;30420;-59
2022/10/29 09:27:23;;;;;;;20.45;5.25;;;;;;;18.68;76.68;100935.72;2112753;83;27638;-63
2022/10/29 09:30:30;;;;;;;12.25;5.80;;;;;;;18.83;76.45;100935.08;2112500;84;29544;-59
2022/10/29 09:33:31;;;;;;;10.53;6.45;;;;;;;18.97;75.90;100932.23;2135881;82;32079;-60
2022/10/29 09:36:33;;;;;;;14.87;5.50;;;;;;;19.11;75.67;100937.95;2164227;82;33861;-59
2022/10/29 09:39:38;;;;;;;25.40;6.15;;;;;;;19.23;75.31;100935.31;2164296;82;30448;-59
2022/10/29 09:42:41;;;;;;;12.53;4.97;;;;;;;19.34;75.33;100939.42;2164554;82;28269;-60
2022/10/29 09:46:05;;;;;;;12.37;5.33;;;;;;;19.46;74.68;100938.98;2164375;82;28688;-60
2022/10/29 09:49:43;;;;;;;15.38;4.90;;;;;;;19.56;74.39;100935.06;2181730;80;31395;-58
2022/10/29 09:53:00;;;;;;;10.90;4.30;;;;;;;19.66;74.13;100927.06;2185261;81;33814;-62
2022/10/29 09:56:06;;;;;;;10.53;4.17;;;;;;;19.76;73.71;100928.56;2185565;81;30547;-61
2022/10/29 09:59:36;;;;;;;10.78;5.40;;;;;;;19.85;73.27;100923.75;2154569;81;27802;-60
2022/10/29 10:03:03;;;;;;;9.68;4.62;;;;;;;19.90;72.70;100917.49;2173571;81;28655;-64
2022/10/29 10:06:08;;;;;;;12.70;5.15;;;;;;;20.00;72.82;100914.91;2162300;81;30183;-60
2022/10/29 10:09:09;;;;;;;11.10;4.37;;;;;;;20.07;71.96;100919.36;2185867;81;32972;-59
2022/10/29 10:12:12;;;;;;;12.98;4.50;;;;;;;20.12;72.14;100923.44;2185983;81;29700;-59
2022/10/29 10:15:24;;;;;;;16.80;4.50;;;;;;;20.16;72.00;100920.85;2186069;81;27602;-60
2022/10/29 10:18:34;;;;;;;13.10;4.35;;;;;;;20.23;71.51;100921.22;2185028;81;29389;-59
2022/10/29 10:21:38;;;;;;;10.08;4.80;;;;;;;20.27;71.62;100913.16;2185730;81;31204;-59
2022/10/29 10:24:42;;;;;;;13.43;4.80;;;;;;;20.31;71.04;100910.56;2186253;81;33664;-61
2022/10/29 10:27:44;;;;;;;10.88;4.40;;;;;;;20.34;71.01;100914.91;2185870;81;30277;-59
2022/10/29 10:31:07;;;;;;;15.93;5.33;;;;;;;20.32;70.52;100906.85;2185703;81;27619;-59
2022/10/29 10:34:22;;;;;;;13.95;5.53;;;;;;;20.33;70.43;100905.02;2184496;80;28681;-59
2022/10/29 10:37:24;;;;;;;12.53;4.47;;;;;;;20.36;70.56;100902.53;2183864;81;31080;-60
2022/10/29 10:40:27;;;;;;;11.53;4.22;;;;;;;20.39;70.18;100908.58;2183884;81;33274;-60
2022/10/29 10:43:30;;;;;;;15.80;6.03;;;;;;;20.42;69.68;100897.45;2183689;81;30055;-60
2022/10/29 10:46:36;;;;;;;14.00;4.30;;;;;;;20.44;69.98;100889.14;2183753;81;27765;-61
2022/10/29 10:49:38;;;;;;;11.25;4.85;;;;;;;20.45;69.49;100883.59;2156690;81;29546;-60
2022/10/29 10:52:40;;;;;;;10.00;5.15;;;;;;;20.46;69.29;100877.64;2183940;81;30474;-60
2022/10/29 10:55:49;;;;;;;14.30;5.40;;;;;;;20.50;69.32;100881.84;2183973;81;33314;-59
2022/10/29 10:59:08;;;;;;;8.20;4.28;;;;;;;20.52;69.04;100881.23;2183716;81;29698;-59
2022/10/29 11:02:47;;;;;;;15.30;6.85;;;;;;;20.58;69.19;100885.30;2183568;81;27706;-59
2022/10/29 11:06:00;;;;;;;14.87;5.40;;;;;;;20.62;68.89;100886.78;2184019;81;29166;-64
2022/10/29 11:09:24;;;;;;;8.53;4.47;;;;;;;20.67;68.69;100877.74;2182943;81;31013;-60
2022/10/29 11:12:49;;;;;;;13.80;5.05;;;;;;;20.71;68.55;100875.62;2176236;81;34117;-60
2022/10/29 11:15:57;;;;;;;;;;;;;;;20.76;68.32;100868.82;2186217;81;30619;-59
2022/10/29 11:19:22;;;;;;;11.68;4.65;;;;;;;20.85;68.11;100878.59;2155410;81;27602;-61
2022/10/29 11:22:33;;;;;;;15.20;4.25;;;;;;;20.88;67.82;100874.22;2148987;82;29048;-60
2022/10/29 11:25:49;;;;;;;8.30;4.35;;;;;;;20.94;67.91;100873.20;2183933;81;31379;-59
2022/10/29 11:29:05;;;;;;;9.48;5.75;;;;;;;20.98;67.67;100871.59;2171322;81;33528;-60
2022/10/29 11:32:39;;;;;;;10.80;4.95;;;;;;;21.03;67.42;100864.75;2148518;82;29335;-59
2022/10/29 11:35:57;;;;;;;13.18;5.72;;;;;;;21.06;66.71;100856.83;2183780;81;27647;-60
2022/10/29 11:39:13;;;;;;;10.28;3.98;;;;;;;21.07;67.02;100856.69;2171563;81;29035;-61
2022/10/29 11:42:14;;;;;;;13.35;4.75;;;;;;;21.06;66.26;100856.31;2171443;81;31184;-60
2022/10/29 11:45:55;;;;;;;10.72;4.58;;;;;;;21.06;66.29;100864.48;2187640;81;33362;-59
2022/10/29 11:49:29;;;;;;;9.53;4.15;;;;;;;21.06;66.12;100861.77;2171090;82;29331;-60
2022/10/29 11:52:39;;;;;;;13.18;4.50;;;;;;;21.06;66.00;100852.74;2171116;81;27711;-59
2022/10/29 11:55:57;;;;;;;9.10;4.95;;;;;;;21.05;65.91;100849.14;2158046;82;28677;-60
2022/10/29 11:59:16;;;;;;;16.00;6.05;;;;;;;21.06;65.85;100845.94;2186934;81;32172;-60
2022/10/29 12:02:54;;;;;;;14.10;5.72;;;;;;;21.08;65.85;100848.03;2170637;81;33614;-60
2022/10/29 12:06:40;;;;;;;10.53;4.97;;;;;;;21.09;65.83;100843.80;2187426;81;29645;-60
2022/10/29 12:10:28;;;;;;;7.78;4.35;;;;;;;21.13;65.72;100844.39;2171041;82;27743;-61
2022/10/29 12:13:56;;;;;;;10.55;4.78;;;;;;;21.16;65.60;100839.20;2171322;82;29458;-60
2022/10/29 12:17:24;;;;;;;11.35;4.62;;;;;;;21.20;65.10;100834.71;2171606;81;31065;-60
2022/10/29 12:20:43;;;;;;;13.20;4.97;;;;;;;21.24;65.12;100834.81;2171388;81;32943;-59
2022/10/29 12:24:14;;;;;;;8.18;4.28;;;;;;;21.29;64.94;100838.98;2079119;85;31429;-60
2022/10/29 12:27:39;;;;;;;9.90;4.35;;;;;;;21.32;65.15;100836.00;2043295;87;27829;-59
2022/10/29 12:30:46;;;;;;;11.10;5.28;;;;;;;21.38;64.79;100825.42;2079524;85;28645;-61
2022/10/29 12:34:01;;;;;;;12.75;3.98;;;;;;;21.42;64.72;100826.52;2040060;86;31035;-61
2022/10/29 12:37:11;;;;;;;9.85;4.08;;;;;;;21.47;64.67;100828.36;2080977;85;33800;-60
2022/10/29 12:40:29;;;;;;;7.78;5.05;;;;;;;21.49;64.52;100816.31;2063779;86;29730;-59
2022/10/29 12:43:35;;;;;;;8.13;4.20;;;;;;;21.49;64.07;100815.45;2065796;86;27726;-60
2022/10/29 12:47:02;;;;;;;6.60;3.77;;;;;;;21.51;64.29;100808.02;2066533;86;28726;-60
2022/10/29 12:50:38;;;;;;;14.55;4.28;;;;;;;21.52;63.95;100809.23;2066228;86;31980;-59
2022/10/29 12:53:44;;;;;;;12.63;4.62;;;;;;;21.56;64.12;100813.91;2067032;86;33419;-59
2022/10/29 12:56:46;;;;;;;8.05;3.90;;;;;;;21.60;63.87;100813.13;2066120;86;31450;-59
2022/10/29 12:59:48;;;;;;;8.25;4.00;;;;;;;21.64;64.12;100811.89;2084689;83;27809;-59
2022/10/29 13:02:53;;;;;;;13.48;4.78;;;;;;;21.69;64.08;100820.02;2141828;83;29233;-61
2022/10/29 13:05:54;;;;;;;10.20;5.00;;;;;;;21.72;63.72;100816.18;2141484;83;31943;-60
2022/10/29 13:08:56;;;;;;;13.20;4.95;;;;;;;21.74;63.54;100809.22;2141542;82;33335;-63
2022/10/29 13:12:10;;;;;;;13.32;4.90;;;;;;;21.73;63.58;100809.73;2141109;83;30533;-60
2022/10/29 13:15:14;;;;;;;10.45;4.67;;;;;;;21.73;63.67;100810.21;2141659;83;27668;-59
2022/10/29 13:19:01;;;;;;;10.70;5.17;;;;;;;21.72;63.56;100813.94;2117277;83;29941;-60
2022/10/29 13:22:20;;;;;;;14.58;5.05;;;;;;;21.72;63.60;100815.30;2140417;83;31917;-62
2022/10/29 13:25:41;;;;;;;10.75;4.97;;;;;;;21.67;63.48;100808.41;2123067;83;33906;-62
2022/10/29 13:28:48;;;;;;;9.73;4.20;;;;;;;21.64;63.58;100814.14;2141286;83;29366;-60
2022/10/29 13:31:49;;;;;;;9.33;4.83;;;;;;;21.63;63.52;100808.80;2141205;82;27656;-61
2022/10/29 13:34:57;;;;;;;12.47;4.50;;;;;;;21.59;63.48;100815.00;2159622;80;30034;-61
2022/10/29 13:38:14;;;;;;;14.40;5.45;;;;;;;21.58;63.27;100805.61;2171121;82;31873;-60
2022/10/29 13:41:44;;;;;;;13.85;5.60;;;;;;;21.57;63.07;100803.88;2131467;83;33846;-59
2022/10/29 13:44:44;;;;;;;7.40;4.50;;;;;;;21.56;62.94;100798.91;2109087;84;29716;-60
2022/10/29 13:47:47;;;;;;;10.55;4.20;;;;;;;21.54;63.10;100795.45;2073789;85;28112;-61
2022/10/29 13:50:53;;;;;;;13.38;4.90;;;;;;;21.53;62.79;100795.08;2010182;87;29914;-60
2022/10/29 13:54:02;;;;;;;8.05;4.45;;;;;;;21.47;62.85;100799.22;2010994;88;31066;-60
2022/10/29 13:57:21;;;;;;;11.55;5.12;;;;;;;21.44;62.94;100794.55;2032261;87;34239;-60
2022/10/29 14:00:23;;;;;;;9.95;5.25;;;;;;;21.38;62.86;100798.16;2010745;88;31505;-60
2022/10/29 14:03:32;;;;;;;6.65;4.35;;;;;;;21.30;62.78;100798.47;2032276;87;27758;-59
2022/10/29 14:06:37;;;;;;;10.20;5.35;;;;;;;21.20;62.88;100794.31;2011244;88;28672;-60
2022/10/29 14:09:47;;;;;;;;;;;;;;;21.10;62.85;100785.59;2035010;87;30864;-59
2022/10/29 14:12:54;;;;;;;10.08;5.05;;;;;;;21.01;62.92;100786.41;2010641;88;33461;-61
2022/10/29 14:16:09;;;;;;;12.88;5.95;;;;;;;20.89;63.21;100785.59;2032068;87;29484;-63
2022/10/29 14:19:20;;;;;;;15.10;7.72;;;;;;;20.81;63.38;100778.56;2031854;87;27847;-60
2022/10/29 14:22:35;;;;;;;16.32;7.67;;;;;;;20.70;63.45;100779.44;2034666;87;28692;-62